sensor_id;sensor_type;location;lat;lon;timestamp;temperature;humidity
528;DHT22;250;47.712;7.508;2022-08-01T00:00:26;22.70;20.70
528;DHT22;250;47.712;7.508;2022-08-01T00:02:53;22.60;20.90
528;DHT22;250;47.712;7.508;2022-08-01T00:05:20;22.60;21.00
528;DHT22;250;47.712;7.508;2022-08-01T00:07:47;22.50;21.10
528;DHT22;250;47.712;7.508;2022-08-01T00:10:15;22.40;21.50
528;DHT22;250;47.712;7.508;2022-08-01T00:12:43;22.50;22.40
528;DHT22;250;47.712;7.508;2022-08-01T00:15:14;22.50;22.40
528;DHT22;250;47.712;7.508;2022-08-01T00:17:42;22.50;22.30
528;DHT22;250;47.712;7.508;2022-08-01T00:20:13;22.40;22.80
528;DHT22;250;47.712;7.508;2022-08-01T00:22:41;22.50;22.50
528;DHT22;250;47.712;7.508;2022-08-01T00:25:08;22.50;22.10
528;DHT22;250;47.712;7.508;2022-08-01T00:27:35;22.50;22.10
528;DHT22;250;47.712;7.508;2022-08-01T00:30:03;22.50;22.00
528;DHT22;250;47.712;7.508;2022-08-01T00:32:32;22.50;21.20
528;DHT22;250;47.712;7.508;2022-08-01T00:34:59;22.50;21.10
528;DHT22;250;47.712;7.508;2022-08-01T00:37:26;22.40;21.20
528;DHT22;250;47.712;7.508;2022-08-01T00:39:53;22.50;21.20
528;DHT22;250;47.712;7.508;2022-08-01T00:42:21;22.40;21.50
528;DHT22;250;47.712;7.508;2022-08-01T00:44:48;22.30;21.60
528;DHT22;250;47.712;7.508;2022-08-01T00:47:15;22.40;21.50
528;DHT22;250;47.712;7.508;2022-08-01T00:49:43;22.40;21.70
528;DHT22;250;47.712;7.508;2022-08-01T00:52:10;22.30;22.80
528;DHT22;250;47.712;7.508;2022-08-01T00:54:39;22.30;21.80
528;DHT22;250;47.712;7.508;2022-08-01T00:57:06;22.30;22.40
528;DHT22;250;47.712;7.508;2022-08-01T00:59:34;22.20;22.10
528;DHT22;250;47.712;7.508;2022-08-01T01:02:01;22.30;21.70
528;DHT22;250;47.712;7.508;2022-08-01T01:04:28;22.30;21.80
528;DHT22;250;47.712;7.508;2022-08-01T01:07:00;22.20;22.00
528;DHT22;250;47.712;7.508;2022-08-01T01:09:34;22.30;21.60
528;DHT22;250;47.712;7.508;2022-08-01T01:12:15;22.30;21.60
528;DHT22;250;47.712;7.508;2022-08-01T01:14:48;22.30;21.60
528;DHT22;250;47.712;7.508;2022-08-01T01:17:21;22.20;22.10
528;DHT22;250;47.712;7.508;2022-08-01T01:19:51;22.30;22.80
528;DHT22;250;47.712;7.508;2022-08-01T01:22:34;22.30;22.80
528;DHT22;250;47.712;7.508;2022-08-01T01:25:09;22.30;22.80
528;DHT22;250;47.712;7.508;2022-08-01T01:27:47;22.10;23.50
528;DHT22;250;47.712;7.508;2022-08-01T01:30:18;22.10;23.60
528;DHT22;250;47.712;7.508;2022-08-01T01:32:48;22.10;22.90
528;DHT22;250;47.712;7.508;2022-08-01T01:35:22;22.20;22.70
528;DHT22;250;47.712;7.508;2022-08-01T01:37:55;22.00;23.50
528;DHT22;250;47.712;7.508;2022-08-01T01:40:23;21.90;23.60
528;DHT22;250;47.712;7.508;2022-08-01T01:42:51;21.80;23.80
528;DHT22;250;47.712;7.508;2022-08-01T01:45:22;21.80;23.90
528;DHT22;250;47.712;7.508;2022-08-01T01:47:50;21.60;24.00
528;DHT22;250;47.712;7.508;2022-08-01T01:50:20;21.60;24.60
528;DHT22;250;47.712;7.508;2022-08-01T01:52:48;21.50;24.50
528;DHT22;250;47.712;7.508;2022-08-01T01:55:15;21.50;24.40
528;DHT22;250;47.712;7.508;2022-08-01T01:57:44;21.70;24.00
528;DHT22;250;47.712;7.508;2022-08-01T02:00:12;21.70;24.20
528;DHT22;250;47.712;7.508;2022-08-01T02:02:43;21.70;24.20
528;DHT22;250;47.712;7.508;2022-08-01T02:05:12;21.60;24.60
528;DHT22;250;47.712;7.508;2022-08-01T02:07:40;21.60;24.70
528;DHT22;250;47.712;7.508;2022-08-01T02:10:10;21.60;24.40
528;DHT22;250;47.712;7.508;2022-08-01T02:12:40;21.50;24.70
528;DHT22;250;47.712;7.508;2022-08-01T02:15:10;21.50;24.20
528;DHT22;250;47.712;7.508;2022-08-01T02:17:43;21.60;24.20
528;DHT22;250;47.712;7.508;2022-08-01T02:20:11;21.50;23.80
528;DHT22;250;47.712;7.508;2022-08-01T02:22:42;21.50;23.90
528;DHT22;250;47.712;7.508;2022-08-01T02:25:13;21.40;23.90
528;DHT22;250;47.712;7.508;2022-08-01T02:30:32;21.30;24.60
528;DHT22;250;47.712;7.508;2022-08-01T02:33:05;21.40;24.20
528;DHT22;250;47.712;7.508;2022-08-01T02:35:35;21.40;24.30
528;DHT22;250;47.712;7.508;2022-08-01T02:38:05;21.30;24.60
528;DHT22;250;47.712;7.508;2022-08-01T02:40:37;21.20;25.10
528;DHT22;250;47.712;7.508;2022-08-01T02:43:05;21.10;24.90
528;DHT22;250;47.712;7.508;2022-08-01T02:45:35;21.10;24.60
528;DHT22;250;47.712;7.508;2022-08-01T02:48:09;21.20;24.20
528;DHT22;250;47.712;7.508;2022-08-01T02:50:37;21.20;24.40
528;DHT22;250;47.712;7.508;2022-08-01T02:53:05;21.10;24.60
528;DHT22;250;47.712;7.508;2022-08-01T02:55:36;21.10;24.30
528;DHT22;250;47.712;7.508;2022-08-01T02:58:05;21.20;23.90
528;DHT22;250;47.712;7.508;2022-08-01T03:00:33;21.20;24.00
528;DHT22;250;47.712;7.508;2022-08-01T03:03:01;21.20;23.80
528;DHT22;250;47.712;7.508;2022-08-01T03:05:31;21.20;24.00
528;DHT22;250;47.712;7.508;2022-08-01T03:08:00;21.20;24.40
528;DHT22;250;47.712;7.508;2022-08-01T03:10:28;21.10;25.00
528;DHT22;250;47.712;7.508;2022-08-01T03:12:57;21.10;25.80
528;DHT22;250;47.712;7.508;2022-08-01T03:15:27;20.90;25.80
528;DHT22;250;47.712;7.508;2022-08-01T03:17:55;20.80;25.80
528;DHT22;250;47.712;7.508;2022-08-01T03:20:23;20.70;26.70
528;DHT22;250;47.712;7.508;2022-08-01T03:22:53;20.60;26.40
528;DHT22;250;47.712;7.508;2022-08-01T03:25:21;20.50;26.70
528;DHT22;250;47.712;7.508;2022-08-01T03:27:54;20.40;27.10
528;DHT22;250;47.712;7.508;2022-08-01T03:30:23;20.40;26.90
528;DHT22;250;47.712;7.508;2022-08-01T03:32:51;20.40;27.00
528;DHT22;250;47.712;7.508;2022-08-01T03:35:19;20.30;27.20
528;DHT22;250;47.712;7.508;2022-08-01T03:37:52;20.30;28.00
528;DHT22;250;47.712;7.508;2022-08-01T03:40:24;20.30;28.10
528;DHT22;250;47.712;7.508;2022-08-01T03:42:56;20.20;28.00
528;DHT22;250;47.712;7.508;2022-08-01T03:45:26;20.20;27.90
528;DHT22;250;47.712;7.508;2022-08-01T03:47:59;20.20;27.70
528;DHT22;250;47.712;7.508;2022-08-01T03:50:27;20.20;26.30
528;DHT22;250;47.712;7.508;2022-08-01T03:52:57;20.30;26.10
528;DHT22;250;47.712;7.508;2022-08-01T03:55:27;20.40;25.40
528;DHT22;250;47.712;7.508;2022-08-01T03:57:55;20.50;25.50
528;DHT22;250;47.712;7.508;2022-08-01T04:00:24;20.40;25.80
528;DHT22;250;47.712;7.508;2022-08-01T04:02:51;20.50;26.10
528;DHT22;250;47.712;7.508;2022-08-01T04:05:19;20.50;26.00
528;DHT22;250;47.712;7.508;2022-08-01T04:07:47;20.50;26.10
528;DHT22;250;47.712;7.508;2022-08-01T04:10:20;20.40;26.60
528;DHT22;250;47.712;7.508;2022-08-01T04:12:49;20.30;27.30
528;DHT22;250;47.712;7.508;2022-08-01T04:15:16;20.40;27.40
528;DHT22;250;47.712;7.508;2022-08-01T04:17:46;20.40;27.50
528;DHT22;250;47.712;7.508;2022-08-01T04:20:14;20.40;27.40
528;DHT22;250;47.712;7.508;2022-08-01T04:22:41;20.30;27.40
528;DHT22;250;47.712;7.508;2022-08-01T04:25:12;20.30;27.70
528;DHT22;250;47.712;7.508;2022-08-01T04:27:45;20.30;28.10
528;DHT22;250;47.712;7.508;2022-08-01T04:30:16;20.30;28.50
528;DHT22;250;47.712;7.508;2022-08-01T04:32:45;20.20;28.70
528;DHT22;250;47.712;7.508;2022-08-01T04:35:14;20.20;28.20
528;DHT22;250;47.712;7.508;2022-08-01T04:37:44;20.20;28.20
528;DHT22;250;47.712;7.508;2022-08-01T04:40:14;20.10;28.20
528;DHT22;250;47.712;7.508;2022-08-01T04:42:43;20.20;27.90
528;DHT22;250;47.712;7.508;2022-08-01T04:45:10;20.20;28.10
528;DHT22;250;47.712;7.508;2022-08-01T04:47:39;20.20;28.60
528;DHT22;250;47.712;7.508;2022-08-01T04:50:08;20.20;28.80
528;DHT22;250;47.712;7.508;2022-08-01T04:52:37;20.20;28.80
528;DHT22;250;47.712;7.508;2022-08-01T04:55:05;20.20;29.30
528;DHT22;250;47.712;7.508;2022-08-01T04:57:34;20.20;29.30
528;DHT22;250;47.712;7.508;2022-08-01T05:00:04;20.30;29.30
528;DHT22;250;47.712;7.508;2022-08-01T05:02:32;20.30;29.40
528;DHT22;250;47.712;7.508;2022-08-01T05:05:01;20.20;29.70
528;DHT22;250;47.712;7.508;2022-08-01T05:07:28;20.30;29.40
528;DHT22;250;47.712;7.508;2022-08-01T05:09:55;20.40;29.40
528;DHT22;250;47.712;7.508;2022-08-01T05:12:22;20.30;29.50
528;DHT22;250;47.712;7.508;2022-08-01T05:14:49;20.50;29.50
528;DHT22;250;47.712;7.508;2022-08-01T05:17:16;20.50;29.50
528;DHT22;250;47.712;7.508;2022-08-01T05:19:43;20.50;29.50
528;DHT22;250;47.712;7.508;2022-08-01T05:22:11;20.50;29.70
528;DHT22;250;47.712;7.508;2022-08-01T05:24:39;20.50;29.80
528;DHT22;250;47.712;7.508;2022-08-01T05:27:08;20.50;30.00
528;DHT22;250;47.712;7.508;2022-08-01T05:29:35;20.60;30.30
528;DHT22;250;47.712;7.508;2022-08-01T05:32:02;20.60;29.60
528;DHT22;250;47.712;7.508;2022-08-01T05:34:30;20.70;29.70
528;DHT22;250;47.712;7.508;2022-08-01T05:36:57;20.70;29.70
528;DHT22;250;47.712;7.508;2022-08-01T05:39:25;20.80;29.70
528;DHT22;250;47.712;7.508;2022-08-01T05:41:52;20.90;29.50
528;DHT22;250;47.712;7.508;2022-08-01T05:44:19;20.90;29.30
528;DHT22;250;47.712;7.508;2022-08-01T05:46:47;21.00;29.30
528;DHT22;250;47.712;7.508;2022-08-01T05:49:14;21.00;29.20
528;DHT22;250;47.712;7.508;2022-08-01T05:51:41;21.10;30.00
528;DHT22;250;47.712;7.508;2022-08-01T05:54:08;21.10;29.70
528;DHT22;250;47.712;7.508;2022-08-01T05:56:36;21.20;29.50
528;DHT22;250;47.712;7.508;2022-08-01T05:59:04;21.20;29.70
528;DHT22;250;47.712;7.508;2022-08-01T06:01:31;21.30;30.00
528;DHT22;250;47.712;7.508;2022-08-01T06:03:58;21.30;29.90
528;DHT22;250;47.712;7.508;2022-08-01T06:06:25;21.30;29.50
528;DHT22;250;47.712;7.508;2022-08-01T06:08:52;21.40;29.00
528;DHT22;250;47.712;7.508;2022-08-01T06:11:19;21.50;28.80
528;DHT22;250;47.712;7.508;2022-08-01T06:13:48;21.50;28.30
528;DHT22;250;47.712;7.508;2022-08-01T06:16:15;21.60;28.30
528;DHT22;250;47.712;7.508;2022-08-01T06:18:42;21.60;27.30
528;DHT22;250;47.712;7.508;2022-08-01T06:21:10;21.70;27.20
528;DHT22;250;47.712;7.508;2022-08-01T06:23:37;21.80;26.50
528;DHT22;250;47.712;7.508;2022-08-01T06:26:04;21.90;26.50
528;DHT22;250;47.712;7.508;2022-08-01T06:28:31;22.00;26.60
528;DHT22;250;47.712;7.508;2022-08-01T06:30:59;22.10;26.70
528;DHT22;250;47.712;7.508;2022-08-01T06:33:26;22.20;25.50
528;DHT22;250;47.712;7.508;2022-08-01T06:35:53;22.30;25.10
528;DHT22;250;47.712;7.508;2022-08-01T06:38:21;22.30;24.70
528;DHT22;250;47.712;7.508;2022-08-01T06:40:48;22.40;24.70
528;DHT22;250;47.712;7.508;2022-08-01T06:43:15;22.50;24.30
528;DHT22;250;47.712;7.508;2022-08-01T06:45:44;22.50;24.00
528;DHT22;250;47.712;7.508;2022-08-01T06:48:12;22.60;24.10
528;DHT22;250;47.712;7.508;2022-08-01T06:50:39;22.60;24.00
528;DHT22;250;47.712;7.508;2022-08-01T06:53:07;22.70;23.00
528;DHT22;250;47.712;7.508;2022-08-01T06:55:34;22.70;23.00
528;DHT22;250;47.712;7.508;2022-08-01T06:58:01;22.80;23.10
528;DHT22;250;47.712;7.508;2022-08-01T07:00:28;22.90;22.30
528;DHT22;250;47.712;7.508;2022-08-01T07:02:56;22.90;21.80
528;DHT22;250;47.712;7.508;2022-08-01T07:05:25;22.90;21.80
528;DHT22;250;47.712;7.508;2022-08-01T07:07:53;23.10;21.70
528;DHT22;250;47.712;7.508;2022-08-01T07:10:20;23.10;21.70
528;DHT22;250;47.712;7.508;2022-08-01T07:12:47;23.10;22.20
528;DHT22;250;47.712;7.508;2022-08-01T07:15:14;23.20;21.70
528;DHT22;250;47.712;7.508;2022-08-01T07:17:42;23.30;21.10
528;DHT22;250;47.712;7.508;2022-08-01T07:20:10;23.30;21.10
528;DHT22;250;47.712;7.508;2022-08-01T07:22:39;23.40;20.20
528;DHT22;250;47.712;7.508;2022-08-01T07:25:07;23.40;20.30
528;DHT22;250;47.712;7.508;2022-08-01T07:27:35;23.50;19.80
528;DHT22;250;47.712;7.508;2022-08-01T07:30:03;23.50;19.50
528;DHT22;250;47.712;7.508;2022-08-01T07:32:30;23.60;19.50
528;DHT22;250;47.712;7.508;2022-08-01T07:34:59;23.70;19.60
528;DHT22;250;47.712;7.508;2022-08-01T07:37:26;23.70;19.60
528;DHT22;250;47.712;7.508;2022-08-01T07:39:54;23.80;19.80
528;DHT22;250;47.712;7.508;2022-08-01T07:42:21;23.90;18.80
528;DHT22;250;47.712;7.508;2022-08-01T07:44:48;23.90;18.20
528;DHT22;250;47.712;7.508;2022-08-01T07:47:16;23.90;18.10
528;DHT22;250;47.712;7.508;2022-08-01T07:49:43;24.10;18.60
528;DHT22;250;47.712;7.508;2022-08-01T07:52:10;24.10;18.80
528;DHT22;250;47.712;7.508;2022-08-01T07:54:37;24.20;18.70
528;DHT22;250;47.712;7.508;2022-08-01T07:57:05;24.30;18.90
528;DHT22;250;47.712;7.508;2022-08-01T07:59:32;24.40;18.80
528;DHT22;250;47.712;7.508;2022-08-01T08:01:59;24.40;18.20
528;DHT22;250;47.712;7.508;2022-08-01T08:04:27;24.50;18.30
528;DHT22;250;47.712;7.508;2022-08-01T08:06:54;24.50;18.60
528;DHT22;250;47.712;7.508;2022-08-01T08:09:21;24.60;18.70
528;DHT22;250;47.712;7.508;2022-08-01T08:11:49;24.70;18.50
528;DHT22;250;47.712;7.508;2022-08-01T08:14:18;24.80;18.90
528;DHT22;250;47.712;7.508;2022-08-01T08:16:45;24.90;18.70
528;DHT22;250;47.712;7.508;2022-08-01T08:19:12;25.00;18.70
528;DHT22;250;47.712;7.508;2022-08-01T08:21:39;25.10;18.50
528;DHT22;250;47.712;7.508;2022-08-01T08:24:07;25.10;18.50
528;DHT22;250;47.712;7.508;2022-08-01T08:26:46;25.20;17.80
528;DHT22;250;47.712;7.508;2022-08-01T08:29:14;25.30;18.20
528;DHT22;250;47.712;7.508;2022-08-01T08:31:42;25.40;18.00
528;DHT22;250;47.712;7.508;2022-08-01T08:34:10;25.40;17.80
528;DHT22;250;47.712;7.508;2022-08-01T08:36:37;25.50;17.60
528;DHT22;250;47.712;7.508;2022-08-01T08:39:05;25.60;17.30
528;DHT22;250;47.712;7.508;2022-08-01T08:41:33;25.60;17.50
528;DHT22;250;47.712;7.508;2022-08-01T08:44:00;25.70;17.30
528;DHT22;250;47.712;7.508;2022-08-01T08:46:28;25.80;17.00
528;DHT22;250;47.712;7.508;2022-08-01T08:49:01;25.80;16.80
528;DHT22;250;47.712;7.508;2022-08-01T08:51:30;25.80;16.80
528;DHT22;250;47.712;7.508;2022-08-01T08:53:58;25.90;16.20
528;DHT22;250;47.712;7.508;2022-08-01T08:56:25;26.00;15.70
528;DHT22;250;47.712;7.508;2022-08-01T08:58:55;26.10;15.70
528;DHT22;250;47.712;7.508;2022-08-01T09:01:22;26.20;15.00
528;DHT22;250;47.712;7.508;2022-08-01T09:03:49;26.30;15.00
528;DHT22;250;47.712;7.508;2022-08-01T09:06:18;26.40;14.90
528;DHT22;250;47.712;7.508;2022-08-01T09:08:45;26.50;14.40
528;DHT22;250;47.712;7.508;2022-08-01T09:11:13;26.60;14.10
528;DHT22;250;47.712;7.508;2022-08-01T09:13:40;26.70;14.40
528;DHT22;250;47.712;7.508;2022-08-01T09:16:07;26.70;13.10
528;DHT22;250;47.712;7.508;2022-08-01T09:18:36;26.70;13.00
528;DHT22;250;47.712;7.508;2022-08-01T09:21:25;26.80;13.50
528;DHT22;250;47.712;7.508;2022-08-01T09:23:54;26.90;13.70
528;DHT22;250;47.712;7.508;2022-08-01T09:26:30;26.80;14.00
528;DHT22;250;47.712;7.508;2022-08-01T09:28:57;26.80;14.50
528;DHT22;250;47.712;7.508;2022-08-01T09:31:26;26.90;14.20
528;DHT22;250;47.712;7.508;2022-08-01T09:33:56;27.10;13.80
528;DHT22;250;47.712;7.508;2022-08-01T09:36:26;27.20;13.40
528;DHT22;250;47.712;7.508;2022-08-01T09:38:54;27.20;13.30
528;DHT22;250;47.712;7.508;2022-08-01T09:41:31;27.20;13.30
528;DHT22;250;47.712;7.508;2022-08-01T09:43:58;27.40;13.40
528;DHT22;250;47.712;7.508;2022-08-01T09:46:25;27.50;13.50
528;DHT22;250;47.712;7.508;2022-08-01T09:49:00;27.50;13.10
528;DHT22;250;47.712;7.508;2022-08-01T09:51:30;27.50;13.00
528;DHT22;250;47.712;7.508;2022-08-01T09:53:58;27.60;13.10
528;DHT22;250;47.712;7.508;2022-08-01T09:56:25;27.70;12.80
528;DHT22;250;47.712;7.508;2022-08-01T09:58:55;27.70;12.80
528;DHT22;250;47.712;7.508;2022-08-01T10:01:22;27.80;12.80
528;DHT22;250;47.712;7.508;2022-08-01T10:04:08;27.90;12.50
528;DHT22;250;47.712;7.508;2022-08-01T10:06:37;28.00;11.90
528;DHT22;250;47.712;7.508;2022-08-01T10:09:04;28.00;11.50
528;DHT22;250;47.712;7.508;2022-08-01T10:11:32;28.00;11.80
528;DHT22;250;47.712;7.508;2022-08-01T10:14:01;28.00;11.90
528;DHT22;250;47.712;7.508;2022-08-01T10:16:30;28.10;12.10
528;DHT22;250;47.712;7.508;2022-08-01T10:18:57;28.20;11.60
528;DHT22;250;47.712;7.508;2022-08-01T10:21:27;28.30;11.40
528;DHT22;250;47.712;7.508;2022-08-01T10:23:56;28.50;11.20
528;DHT22;250;47.712;7.508;2022-08-01T10:26:26;28.40;11.00
528;DHT22;250;47.712;7.508;2022-08-01T10:28:54;28.30;11.60
528;DHT22;250;47.712;7.508;2022-08-01T10:31:22;28.30;11.00
528;DHT22;250;47.712;7.508;2022-08-01T10:33:50;28.20;10.80
528;DHT22;250;47.712;7.508;2022-08-01T10:36:19;28.10;10.90
528;DHT22;250;47.712;7.508;2022-08-01T10:38:47;28.10;11.30
528;DHT22;250;47.712;7.508;2022-08-01T10:41:15;28.30;11.30
528;DHT22;250;47.712;7.508;2022-08-01T10:43:45;28.30;11.20
528;DHT22;250;47.712;7.508;2022-08-01T10:46:12;28.50;8.70
528;DHT22;250;47.712;7.508;2022-08-01T10:48:44;28.50;7.50
528;DHT22;250;47.712;7.508;2022-08-01T10:51:14;28.50;7.40
528;DHT22;250;47.712;7.508;2022-08-01T10:53:46;28.60;7.50
528;DHT22;250;47.712;7.508;2022-08-01T10:56:15;28.60;7.40
528;DHT22;250;47.712;7.508;2022-08-01T10:58:44;28.80;7.40
528;DHT22;250;47.712;7.508;2022-08-01T11:01:22;28.90;7.70
528;DHT22;250;47.712;7.508;2022-08-01T11:04:07;29.00;7.70
528;DHT22;250;47.712;7.508;2022-08-01T11:06:42;29.00;7.90
528;DHT22;250;47.712;7.508;2022-08-01T11:09:27;29.00;7.40
528;DHT22;250;47.712;7.508;2022-08-01T11:12:01;29.00;8.20
528;DHT22;250;47.712;7.508;2022-08-01T11:14:30;28.90;7.80
528;DHT22;250;47.712;7.508;2022-08-01T11:17:31;28.90;6.60
528;DHT22;250;47.712;7.508;2022-08-01T11:20:07;28.90;6.60
528;DHT22;250;47.712;7.508;2022-08-01T11:26:11;29.10;6.70
528;DHT22;250;47.712;7.508;2022-08-01T11:28:41;29.00;5.70
528;DHT22;250;47.712;7.508;2022-08-01T11:31:27;29.00;5.60
528;DHT22;250;47.712;7.508;2022-08-01T11:33:55;29.10;5.60
528;DHT22;250;47.712;7.508;2022-08-01T11:36:22;29.20;5.70
528;DHT22;250;47.712;7.508;2022-08-01T11:41:32;29.50;5.30
528;DHT22;250;47.712;7.508;2022-08-01T11:44:03;29.70;4.80
528;DHT22;250;47.712;7.508;2022-08-01T11:46:59;29.70;4.50
528;DHT22;250;47.712;7.508;2022-08-01T11:49:44;29.80;4.80
528;DHT22;250;47.712;7.508;2022-08-01T11:52:15;29.80;4.40
528;DHT22;250;47.712;7.508;2022-08-01T11:54:43;29.80;5.10
528;DHT22;250;47.712;7.508;2022-08-01T11:57:12;29.90;5.10
528;DHT22;250;47.712;7.508;2022-08-01T11:59:43;30.00;4.90
528;DHT22;250;47.712;7.508;2022-08-01T12:02:18;30.00;4.90
528;DHT22;250;47.712;7.508;2022-08-01T12:04:51;30.00;4.90
528;DHT22;250;47.712;7.508;2022-08-01T12:07:18;30.10;4.20
528;DHT22;250;47.712;7.508;2022-08-01T12:09:46;30.10;4.50
528;DHT22;250;47.712;7.508;2022-08-01T12:12:15;30.00;4.10
528;DHT22;250;47.712;7.508;2022-08-01T12:14:45;30.00;3.80
528;DHT22;250;47.712;7.508;2022-08-01T12:17:26;30.10;4.20
528;DHT22;250;47.712;7.508;2022-08-01T12:19:54;30.20;4.50
528;DHT22;250;47.712;7.508;2022-08-01T12:22:24;30.30;4.10
528;DHT22;250;47.712;7.508;2022-08-01T12:24:52;30.40;4.80
528;DHT22;250;47.712;7.508;2022-08-01T12:27:27;30.40;4.80
528;DHT22;250;47.712;7.508;2022-08-01T12:29:57;30.60;4.60
528;DHT22;250;47.712;7.508;2022-08-01T12:32:27;30.80;4.80
528;DHT22;250;47.712;7.508;2022-08-01T12:35:00;30.80;4.10
528;DHT22;250;47.712;7.508;2022-08-01T12:37:27;30.80;2.70
528;DHT22;250;47.712;7.508;2022-08-01T12:39:54;30.80;3.00
528;DHT22;250;47.712;7.508;2022-08-01T12:42:22;30.70;3.20
528;DHT22;250;47.712;7.508;2022-08-01T12:44:51;30.50;3.30
528;DHT22;250;47.712;7.508;2022-08-01T12:47:21;30.50;3.10
528;DHT22;250;47.712;7.508;2022-08-01T12:49:49;30.50;3.10
528;DHT22;250;47.712;7.508;2022-08-01T12:52:16;30.60;2.90
528;DHT22;250;47.712;7.508;2022-08-01T12:55:01;30.60;3.20
528;DHT22;250;47.712;7.508;2022-08-01T12:57:28;30.60;2.90
528;DHT22;250;47.712;7.508;2022-08-01T13:00:15;30.70;3.20
528;DHT22;250;47.712;7.508;2022-08-01T13:02:45;30.80;3.60
528;DHT22;250;47.712;7.508;2022-08-01T13:05:13;30.90;3.20
528;DHT22;250;47.712;7.508;2022-08-01T13:07:42;31.00;2.90
528;DHT22;250;47.712;7.508;2022-08-01T13:10:11;31.00;2.50
528;DHT22;250;47.712;7.508;2022-08-01T13:12:39;31.00;2.30
528;DHT22;250;47.712;7.508;2022-08-01T13:15:21;31.00;2.50
528;DHT22;250;47.712;7.508;2022-08-01T13:17:51;30.80;2.60
528;DHT22;250;47.712;7.508;2022-08-01T13:20:26;30.80;3.10
528;DHT22;250;47.712;7.508;2022-08-01T13:22:53;30.90;3.00
528;DHT22;250;47.712;7.508;2022-08-01T13:25:20;31.00;2.60
528;DHT22;250;47.712;7.508;2022-08-01T13:27:47;31.10;2.60
528;DHT22;250;47.712;7.508;2022-08-01T13:30:16;31.20;2.50
528;DHT22;250;47.712;7.508;2022-08-01T13:32:44;31.40;2.40
528;DHT22;250;47.712;7.508;2022-08-01T13:35:24;31.50;2.20
528;DHT22;250;47.712;7.508;2022-08-01T13:37:51;31.40;2.00
528;DHT22;250;47.712;7.508;2022-08-01T13:40:24;31.50;1.90
528;DHT22;250;47.712;7.508;2022-08-01T13:42:52;31.90;2.00
528;DHT22;250;47.712;7.508;2022-08-01T13:45:20;32.30;1.50
528;DHT22;250;47.712;7.508;2022-08-01T13:47:47;32.50;1.00
528;DHT22;250;47.712;7.508;2022-08-01T13:50:14;32.70;1.00
528;DHT22;250;47.712;7.508;2022-08-01T13:52:43;33.10;1.10
528;DHT22;250;47.712;7.508;2022-08-01T13:55:10;33.20;1.00
528;DHT22;250;47.712;7.508;2022-08-01T13:57:37;33.20;1.00
528;DHT22;250;47.712;7.508;2022-08-01T14:00:06;33.00;1.00
528;DHT22;250;47.712;7.508;2022-08-01T14:02:34;32.80;1.00
528;DHT22;250;47.712;7.508;2022-08-01T14:05:02;32.70;1.00
528;DHT22;250;47.712;7.508;2022-08-01T14:07:29;32.00;1.00
528;DHT22;250;47.712;7.508;2022-08-01T14:09:57;31.70;1.00
528;DHT22;250;47.712;7.508;2022-08-01T14:12:24;31.70;1.00
528;DHT22;250;47.712;7.508;2022-08-01T14:14:51;31.60;1.00
528;DHT22;250;47.712;7.508;2022-08-01T14:17:18;31.60;1.00
528;DHT22;250;47.712;7.508;2022-08-01T14:19:45;31.50;1.40
528;DHT22;250;47.712;7.508;2022-08-01T14:22:13;31.50;1.10
528;DHT22;250;47.712;7.508;2022-08-01T14:24:40;31.40;1.00
528;DHT22;250;47.712;7.508;2022-08-01T14:27:08;31.40;1.00
528;DHT22;250;47.712;7.508;2022-08-01T14:29:35;31.40;1.00
528;DHT22;250;47.712;7.508;2022-08-01T14:32:03;31.20;1.00
528;DHT22;250;47.712;7.508;2022-08-01T14:34:30;31.10;1.70
528;DHT22;250;47.712;7.508;2022-08-01T14:36:57;31.10;2.20
528;DHT22;250;47.712;7.508;2022-08-01T14:39:24;31.20;2.40
528;DHT22;250;47.712;7.508;2022-08-01T14:41:51;31.20;1.80
528;DHT22;250;47.712;7.508;2022-08-01T14:44:19;31.30;1.40
528;DHT22;250;47.712;7.508;2022-08-01T14:46:46;31.30;1.30
528;DHT22;250;47.712;7.508;2022-08-01T14:49:15;31.40;2.00
528;DHT22;250;47.712;7.508;2022-08-01T14:51:42;31.30;1.40
528;DHT22;250;47.712;7.508;2022-08-01T14:54:09;31.20;1.70
528;DHT22;250;47.712;7.508;2022-08-01T14:56:36;31.30;1.90
528;DHT22;250;47.712;7.508;2022-08-01T14:59:03;31.30;1.00
528;DHT22;250;47.712;7.508;2022-08-01T15:01:31;31.20;1.00
528;DHT22;250;47.712;7.508;2022-08-01T15:03:58;31.10;1.00
528;DHT22;250;47.712;7.508;2022-08-01T15:06:25;30.90;1.00
528;DHT22;250;47.712;7.508;2022-08-01T15:08:52;30.90;1.00
528;DHT22;250;47.712;7.508;2022-08-01T15:11:19;30.90;1.00
528;DHT22;250;47.712;7.508;2022-08-01T15:13:46;30.90;1.10
528;DHT22;250;47.712;7.508;2022-08-01T15:16:36;31.00;1.50
528;DHT22;250;47.712;7.508;2022-08-01T15:19:03;30.90;1.60
528;DHT22;250;47.712;7.508;2022-08-01T15:21:30;30.90;1.80
528;DHT22;250;47.712;7.508;2022-08-01T15:23:57;30.90;1.30
528;DHT22;250;47.712;7.508;2022-08-01T15:26:24;30.80;1.30
528;DHT22;250;47.712;7.508;2022-08-01T15:28:53;30.70;1.50
528;DHT22;250;47.712;7.508;2022-08-01T15:31:20;30.70;1.40
528;DHT22;250;47.712;7.508;2022-08-01T15:33:48;30.80;1.50
528;DHT22;250;47.712;7.508;2022-08-01T15:36:15;30.80;1.70
528;DHT22;250;47.712;7.508;2022-08-01T15:38:42;30.80;2.00
528;DHT22;250;47.712;7.508;2022-08-01T15:41:09;30.70;2.00
528;DHT22;250;47.712;7.508;2022-08-01T15:43:36;30.60;1.90
528;DHT22;250;47.712;7.508;2022-08-01T15:46:04;30.70;2.00
528;DHT22;250;47.712;7.508;2022-08-01T15:48:31;30.60;2.10
528;DHT22;250;47.712;7.508;2022-08-01T15:50:59;30.50;2.40
528;DHT22;250;47.712;7.508;2022-08-01T15:53:26;30.50;2.30
528;DHT22;250;47.712;7.508;2022-08-01T15:55:53;30.40;1.90
528;DHT22;250;47.712;7.508;2022-08-01T15:58:20;30.40;2.20
528;DHT22;250;47.712;7.508;2022-08-01T16:00:47;30.40;2.20
528;DHT22;250;47.712;7.508;2022-08-01T16:03:14;30.30;1.80
528;DHT22;250;47.712;7.508;2022-08-01T16:05:42;30.20;2.10
528;DHT22;250;47.712;7.508;2022-08-01T16:08:12;30.20;2.30
528;DHT22;250;47.712;7.508;2022-08-01T16:10:39;30.30;2.00
528;DHT22;250;47.712;7.508;2022-08-01T16:13:06;30.20;2.60
528;DHT22;250;47.712;7.508;2022-08-01T16:15:34;30.20;2.50
528;DHT22;250;47.712;7.508;2022-08-01T16:18:01;30.20;2.60
528;DHT22;250;47.712;7.508;2022-08-01T16:20:28;30.20;2.80
528;DHT22;250;47.712;7.508;2022-08-01T16:22:55;30.20;2.90
528;DHT22;250;47.712;7.508;2022-08-01T16:25:23;30.10;3.10
528;DHT22;250;47.712;7.508;2022-08-01T16:27:50;30.00;3.30
528;DHT22;250;47.712;7.508;2022-08-01T16:30:17;30.00;3.20
528;DHT22;250;47.712;7.508;2022-08-01T16:32:45;29.90;3.40
528;DHT22;250;47.712;7.508;2022-08-01T16:35:12;29.80;3.30
528;DHT22;250;47.712;7.508;2022-08-01T16:37:39;29.80;3.60
528;DHT22;250;47.712;7.508;2022-08-01T16:40:06;29.80;3.80
528;DHT22;250;47.712;7.508;2022-08-01T16:42:35;29.80;4.80
528;DHT22;250;47.712;7.508;2022-08-01T16:45:02;29.80;4.20
528;DHT22;250;47.712;7.508;2022-08-01T16:47:29;29.80;4.20
528;DHT22;250;47.712;7.508;2022-08-01T16:49:56;29.80;4.20
528;DHT22;250;47.712;7.508;2022-08-01T16:52:23;29.70;4.40
528;DHT22;250;47.712;7.508;2022-08-01T16:54:50;29.60;4.50
528;DHT22;250;47.712;7.508;2022-08-01T16:57:17;29.50;5.00
528;DHT22;250;47.712;7.508;2022-08-01T16:59:46;29.40;5.60
528;DHT22;250;47.712;7.508;2022-08-01T17:02:13;29.40;5.80